Latest Weather Observations for Nullarbor

IDS60801

Issued at 9:21 am CST Saturday 22 September 2018 (issued every 10 minutes, with the page automatically refreshed every 10 minutes)

About weather observations | Map of weather stations | Latest weather observations for SA | Other Formats
Station Details ID: 018106 Name: NULLARBOR Lat: -31.45 Lon: 130.90 Height: 64.0 m
Data from the previous 72 hours. | See also: Recent months at Nullarbor
Date/Time
CST
Temp
°C
App
Temp
°C
Dew
Point
°C
Rel
Hum
%
Delta-T
°C
Wind Press
QNH
hPa
Press
MSL
hPa
Rain since
9am
mm
Dir  Spd
km/h
Gust
km/h
Spd
kts
Gust
kts
22/09:00am 21.1 17.2 3.3 31 8.4 N 13 17 7 9 1028.4 1028.3 0.2
22/08:30am 18.5 14.8 4.3 39 6.7 N 13 17 7 9 1028.2 1028.1 0.2
22/08:00am 14.8 11.3 5.3 53 4.5 NNE 13 19 7 10 1027.9 1027.8 0.2
22/07:30am 10.8 7.1 6.2 73 2.1 NE 15 19 8 10 1027.6 1027.5 0.2
22/07:00am 7.0 2.3 5.0 87 0.9 NE 19 20 10 11 1027.3 1027.2 0.2
22/06:30am 6.2 2.1 4.2 87 0.9 ENE 15 17 8 9 1027.0 1026.9 0.2
22/06:00am 6.2 1.3 4.0 86 0.9 ENE 19 20 10 11 1026.5 1026.4 0.2
22/05:30am 6.4 1.9 4.1 85 1.0 ENE 17 19 9 10 1026.2 1026.1 0.2
22/05:00am 6.8 2.7 4.1 83 1.2 ENE 15 17 8 9 1026.0 1025.9 0.2
22/04:30am 7.4 2.9 4.2 80 1.4 E 17 19 9 10 1025.8 1025.7 0.2
22/04:00am 8.2 3.7 4.2 76 1.7 E 17 17 9 9 1025.6 1025.5 0.2
22/03:30am 9.4 5.5 5.2 75 1.9 ESE 15 17 8 9 1025.5 1025.4 0.2
22/03:00am 9.8 6.2 5.2 73 2.1 ENE 13 19 7 10 1025.4 1025.3 0.2
22/02:30am 9.9 6.4 5.5 74 2.0 ENE 13 15 7 8 1025.5 1025.4 0.2
22/02:00am 10.5 6.0 5.9 73 2.1 ENE 19 20 10 11 1025.6 1025.5 0.2
22/01:30am 9.0 5.0 5.0 76 1.8 NE 15 17 8 9 1025.8 1025.7 0.2
22/01:00am 8.7 4.4 5.4 80 1.5 ENE 17 19 9 10 1026.1 1026.0 0.2
22/12:30am 8.3 4.1 5.9 85 1.1 ENE 17 19 9 10 1026.3 1026.2 0.2
22/12:00am 9.6 6.3 8.0 90 0.8 ENE 15 17 8 9 1026.3 1026.2 0.2
 
Date/Time
CST
Temp
°C
App
Temp
°C
Dew
Point
°C
Rel
Hum
%
Delta-T
°C
Wind Press
QNH
hPa
Press
MSL
hPa
Rain since
9am
mm
Dir  Spd
km/h
Gust
km/h
Spd
kts
Gust
kts
21/11:30pm 9.7 6.1 8.5 92 0.6 E 17 17 9 9 1026.5 1026.4 0.2
21/11:00pm 11.1 7.9 9.9 92 0.6 ESE 17 19 9 10 1026.1 1026.0 0.2
21/10:30pm 11.2 8.5 9.1 87 1.0 SE 13 15 7 8 1026.2 1026.1 0.2
21/10:00pm 12.8 9.8 10.5 86 1.2 ESE 17 19 9 10 1026.0 1025.9 0.2
21/09:30pm 13.8 11.0 11.5 86 1.2 ESE 17 20 9 11 1025.9 1025.8 0.2
21/09:00pm 13.9 11.3 12.1 89 1.0 ESE 17 19 9 10 1025.7 1025.6 0.2
21/08:30pm 14.2 12.3 11.7 85 1.3 ESE 13 15 7 8 1025.4 1025.3 0.2
21/08:00pm 14.9 12.7 12.0 83 1.6 ESE 15 20 8 11 1025.0 1024.9 0.2
21/07:30pm 15.7 13.2 10.9 73 2.6 ESE 15 19 8 10 1024.6 1024.5 0.2
21/07:00pm 16.9 13.9 9.1 60 4.0 SE 15 19 8 10 1024.2 1024.1 0.2
21/06:30pm 19.0 14.5 7.1 46 6.0 SE 20 28 11 15 1023.9 1023.8 0.2
21/06:00pm 20.9 14.9 5.3 36 7.7 SE 26 32 14 17 1023.5 1023.4 0.2
21/05:30pm 22.2 16.4 4.3 31 8.7 SSE 24 32 13 17 1023.3 1023.2 0.2
21/05:00pm 23.3 17.5 4.3 29 9.4 SSE 24 33 13 18 1023.1 1023.0 0.2
21/04:30pm 24.1 18.1 5.5 30 9.4 SSE 26 35 14 19 1022.9 1022.9 0.2
21/04:00pm 24.4 17.8 6.2 31 9.4 SSE 30 35 16 19 1022.7 1022.7 0.2
21/03:30pm 25.5 18.5 6.2 29 10.0 SSE 32 37 17 20 1022.4 1022.4 0.2
21/03:00pm 25.5 20.8 5.1 27 10.3 SSE 19 39 10 21 1022.6 1022.6 0.2
21/02:30pm 27.1 22.7 2.9 21 11.9 N 15 24 8 13 1023.2 1023.1 0.2
21/02:00pm 26.3 22.4 3.5 23 11.3 NNW 13 20 7 11 1023.6 1023.5 0.2
21/01:30pm 26.0 22.1 3.3 23 11.2 NNW 13 24 7 13 1024.0 1023.9 0.2
21/01:00pm 25.5 21.8 4.6 26 10.5 NW 13 24 7 13 1024.7 1024.6 0.2
21/12:30pm 25.1 21.5 4.8 27 10.2 WNW 13 26 7 14 1025.3 1025.2 0.2
21/12:00pm 24.4 20.8 5.2 29 9.7 NNW 13 33 7 18 1025.7 1025.6 0.2
21/11:30am 24.8 20.4 7.4 33 9.1 N 20 28 11 15 1026.2 1026.1 0.2
21/11:00am 23.3 19.5 7.4 36 8.3 NNE 17 26 9 14 1026.8 1026.7 0.2
21/10:30am 21.9 17.7 8.1 41 7.2 NNE 20 26 11 14 1027.0 1026.9 0.2
21/10:00am 20.4 16.5 9.6 50 5.8 NNE 20 26 11 14 1027.2 1027.1 0.2
21/09:30am 18.4 14.2 9.7 57 4.6 NNE 22 28 12 15 1027.3 1027.2 0.0
21/09:00am 16.4 11.6 10.3 67 3.2 NE 26 33 14 18 1027.4 1027.3 0.0
21/08:30am 13.8 10.8 13.6 99 0.1 NE 22 30 12 16 1027.4 1027.3 0.0
21/08:00am 10.6 7.2 10.6 100 0.0 NE 19 26 10 14 1027.1 1027.0 0.0
21/07:30am 8.4 5.6 8.4 100 0.0 NE 13 15 7 8 1026.8 1026.7 0.0
21/07:21am 7.9 4.9 7.9 100 0.0 NE 13 17 7 9 1026.6 1026.5 0.0
21/07:00am 5.5 1.6 5.5 100 0.0 NE 15 15 8 8 1026.4 1026.3 0.0
21/06:55am 5.2 1.3 5.2 100 0.0 NE 15 17 8 9 1026.4 1026.3 0.0
21/06:30am 5.1 1.1 5.1 100 0.0 NE 15 17 8 9 1026.2 1026.1 0.0
21/06:17am 5.0 1.0 5.0 100 0.0 NE 15 17 8 9 1026.2 1026.1 0.0
21/06:00am 4.7 0.3 4.7 100 0.0 NE 17 19 9 10 1026.1 1026.0 0.0
21/05:30am 3.9 0.5 3.9 100 0.0 NE 11 13 6 7 1025.8 1025.7 0.0
21/05:00am 4.7 1.0 4.7 100 0.0 ENE 13 15 7 8 1025.6 1025.5 0.0
21/04:30am 4.9 0.9 4.9 100 0.0 ENE 15 15 8 8 1025.4 1025.3 0.0
21/04:18am 5.3 1.8 5.3 100 0.0 ENE 13 15 7 8 1025.4 1025.3 0.0
21/04:00am 5.4 1.5 5.4 100 0.0 E 15 17 8 9 1025.5 1025.4 0.0
21/03:30am 6.9 3.3 6.9 100 0.0 ENE 15 17 8 9 1025.6 1025.5 0.0
21/03:00am 7.2 3.3 7.2 100 0.0 E 17 19 9 10 1025.6 1025.5 0.0
21/02:30am 8.0 4.3 8.0 100 0.0 E 17 19 9 10 1025.9 1025.8 0.0
21/02:00am 7.2 3.7 7.2 100 0.0 E 15 17 8 9 1026.1 1026.0 0.0
21/01:30am 7.5 4.1 7.5 100 0.0 E 15 15 8 8 1026.3 1026.2 0.0
21/01:00am 8.6 5.1 8.6 100 0.0 E 17 19 9 10 1026.5 1026.4 0.0
21/12:30am 7.1 3.6 7.0 99 0.0 ENE 15 17 8 9 1026.7 1026.6 0.0
21/12:00am 7.3 4.6 7.2 99 0.0 E 11 13 6 7 1026.9 1026.8 0.0
 
Date/Time
CST
Temp
°C
App
Temp
°C
Dew
Point
°C
Rel
Hum
%
Delta-T
°C
Wind Press
QNH
hPa
Press
MSL
hPa
Rain since
9am
mm
Dir  Spd
km/h
Gust
km/h
Spd
kts
Gust
kts
20/11:30pm 8.2 4.9 8.1 99 0.0 ESE 15 17 8 9 1027.0 1026.9 0.0
20/11:00pm 8.5 5.3 8.4 99 0.0 ESE 15 17 8 9 1027.0 1026.9 0.0
20/10:30pm 8.7 5.5 8.6 99 0.0 ESE 15 17 8 9 1027.1 1027.0 0.0
20/10:00pm 8.5 5.6 8.2 98 0.1 ESE 13 17 7 9 1027.2 1027.1 0.0
20/09:30pm 9.6 7.0 9.3 98 0.1 SE 13 13 7 7 1027.1 1027.0 0.0
20/09:00pm 10.2 7.7 9.6 96 0.3 SE 13 13 7 7 1026.8 1026.7 0.0
20/08:30pm 11.0 8.6 10.1 94 0.5 SSE 13 15 7 8 1026.5 1026.4 0.0
20/08:00pm 11.8 9.1 10.4 91 0.7 SSE 15 17 8 9 1026.2 1026.1 0.0
20/07:30pm 12.5 9.8 10.4 87 1.1 SSE 15 19 8 10 1025.9 1025.8 0.0
20/07:00pm 13.4 10.3 10.4 82 1.6 SSE 17 24 9 13 1025.8 1025.7 0.0
20/06:30pm 14.3 10.7 10.7 79 1.9 SSE 20 26 11 14 1025.7 1025.6 0.0
20/06:00pm 15.2 10.7 10.2 72 2.6 SSE 24 30 13 16 1025.4 1025.3 0.0
20/05:30pm 16.2 12.2 10.5 69 3.0 SSE 22 30 12 16 1025.3 1025.2 0.0
20/05:00pm 16.9 12.9 10.3 65 3.5 SSE 22 32 12 17 1025.0 1024.9 0.0
20/04:30pm 17.2 13.0 9.9 62 3.8 SSE 22 30 12 16 1024.8 1024.7 0.0
20/04:00pm 17.4 13.3 10.1 62 3.9 S 22 30 12 16 1025.0 1024.9 0.0
20/03:30pm 18.0 14.0 10.4 61 4.1 S 22 32 12 17 1025.1 1025.0 0.0
20/03:00pm 18.7 14.8 10.8 60 4.3 SSE 22 32 12 17 1025.3 1025.2 0.0
20/02:30pm 18.4 14.0 10.5 60 4.2 SSE 24 33 13 18 1025.5 1025.4 0.0
20/02:00pm 18.6 14.0 9.7 56 4.7 S 24 32 13 17 1025.9 1025.8 0.0
20/01:30pm 18.7 14.4 9.5 55 4.8 SSE 22 30 12 16 1026.1 1026.0 0.0
20/01:00pm 18.7 15.9 8.7 52 5.2 SSW 13 24 7 13 1026.5 1026.4 0.0
20/12:30pm 19.3 17.0 8.9 51 5.4 S 11 22 6 12 1026.7 1026.6 0.0
20/12:00pm 19.4 17.9 8.4 49 5.7 SW 6 13 3 7 1027.0 1026.9 0.0
20/11:30am 18.6 17.0 8.8 53 5.1 S 7 15 4 8 1027.3 1027.2 0.0
20/11:00am 17.6 16.1 8.5 55 4.7 WNW 6 13 3 7 1027.6 1027.5 0.0
20/10:30am 16.3 14.2 8.3 59 4.0 NW 9 13 5 7 1027.9 1027.8 0.0
20/10:00am 15.5 13.4 8.3 62 3.6 WNW 9 13 5 7 1028.1 1028.0 0.0
20/09:30am 15.8 14.3 8.3 61 3.8 ESE 6 9 3 5 1028.0 1027.9 0.0
20/09:00am 15.2 13.3 8.9 66 3.2 ESE 9 13 5 7 1027.9 1027.8 0.0
20/08:30am 14.5 13.0 9.1 70 2.7 SSE 7 17 4 9 1027.5 1027.4 0.0
20/08:00am 14.1 12.8 9.3 73 2.5 S 6 9 3 5 1027.2 1027.1 0.0
20/07:30am 12.7 11.6 9.9 83 1.4 S 6 7 3 4 1026.8 1026.7 0.0
20/07:00am 11.4 11.3 9.5 88 1.0 CALM 0 0 0 0 1026.3 1026.2 0.0
20/06:30am 11.3 10.5 9.7 90 0.8 WSW 4 7 2 4 1026.0 1025.9 0.0
20/06:00am 10.8 10.8 9.7 93 0.6 CALM 0 6 0 3 1025.7 1025.6 0.0
20/05:30am 10.3 9.8 9.2 93 0.5 SSW 2 6 1 3 1025.6 1025.5 0.0
20/05:00am 10.3 9.1 9.7 96 0.3 WNW 6 7 3 4 1025.3 1025.2 0.0
20/04:30am 9.7 9.3 9.6 99 0.0 NW 2 7 1 4 1025.3 1025.2 0.0
20/04:00am 9.3 8.0 9.2 99 0.0 WNW 6 7 3 4 1025.1 1025.0 0.0
20/03:30am 8.6 6.6 8.5 99 0.0 W 9 11 5 6 1025.2 1025.1 0.0
20/03:00am 7.9 5.3 7.8 99 0.0 WNW 11 13 6 7 1025.3 1025.2 0.0
20/02:30am 8.0 5.4 7.9 99 0.0 WNW 11 13 6 7 1025.3 1025.2 0.0
20/02:00am 8.0 5.8 7.9 99 0.0 WNW 9 11 5 6 1025.4 1025.3 0.0
20/01:30am 7.6 4.6 7.5 99 0.0 NW 13 15 7 8 1025.6 1025.5 0.0
20/01:00am 8.3 5.8 8.2 99 0.0 WNW 11 13 6 7 1025.8 1025.7 0.0
20/12:30am 9.3 7.4 9.2 99 0.0 WNW 9 11 5 6 1025.9 1025.8 0.0
20/12:00am 9.9 8.2 9.8 99 0.0 NW 9 9 5 5 1026.0 1025.9 0.0
 
Date/Time
CST
Temp
°C
App
Temp
°C
Dew
Point
°C
Rel
Hum
%
Delta-T
°C
Wind Press
QNH
hPa
Press
MSL
hPa
Rain since
9am
mm
Dir  Spd
km/h
Gust
km/h
Spd
kts
Gust
kts
19/11:30pm 9.8 8.1 9.7 99 0.0 NW 9 11 5 6 1026.1 1026.0 0.0
19/11:00pm 10.0 8.7 9.9 99 0.1 W 7 11 4 6 1026.2 1026.1 0.0
19/10:30pm 9.9 8.6 9.8 99 0.0 W 7 9 4 5 1026.1 1026.0 0.0
19/10:00pm 9.6 8.1 9.1 97 0.2 WSW 7 9 4 5 1026.1 1026.0 0.0
19/09:30pm 9.6 7.6 8.8 95 0.4 SW 9 11 5 6 1025.9 1025.8 0.0
19/09:00pm 10.4 7.8 9.5 94 0.4 WSW 13 15 7 8 1025.9 1025.8 0.0
19/08:30pm 10.7 8.4 9.1 90 0.8 WSW 11 13 6 7 1025.6 1025.5 0.0
19/08:00pm 11.4 9.2 9.5 88 1.0 SW 11 13 6 7 1025.5 1025.4 0.0
19/07:30pm 12.4 10.4 10.0 85 1.2 SW 11 13 6 7 1025.2 1025.1 0.0
19/07:00pm 13.3 10.4 9.5 78 1.9 SW 15 19 8 10 1024.9 1024.8 0.0
19/06:30pm 14.3 10.4 9.5 73 2.5 SSW 20 28 11 15 1024.8 1024.7 0.0
19/06:00pm 15.2 11.0 9.6 69 2.9 SSW 22 28 12 15 1024.6 1024.5 0.0
19/05:30pm 16.2 11.6 9.6 65 3.4 SSW 24 32 13 17 1024.3 1024.2 0.0
19/05:00pm 16.7 12.5 9.6 63 3.7 SSW 22 32 12 17 1024.0 1023.9 0.0
19/04:30pm 17.0 12.7 9.2 60 4.0 SW 22 32 12 17 1024.0 1023.9 0.0
19/04:00pm 17.3 12.9 9.0 58 4.3 SW 22 32 12 17 1024.0 1023.9 0.0
19/03:30pm 17.4 12.5 8.3 55 4.6 SW 24 32 13 17 1024.1 1024.0 0.0
19/03:00pm 17.4 12.6 8.8 57 4.4 SW 24 37 13 20 1023.9 1023.8 0.0
19/02:30pm 17.2 12.4 8.9 58 4.3 SW 24 33 13 18 1024.1 1024.0 0.0
19/02:00pm 18.3 13.4 8.6 53 5.0 SW 24 39 13 21 1024.2 1024.1 0.0
19/01:30pm 17.8 13.6 8.4 54 4.8 SW 20 28 11 15 1024.3 1024.2 0.0
19/01:00pm 16.7 12.5 8.1 57 4.4 SW 20 33 11 18 1024.6 1024.5 0.0
19/12:30pm 16.4 12.2 8.1 58 4.2 SW 20 32 11 17 1024.8 1024.7 0.0
19/12:00pm 16.2 11.9 9.2 63 3.6 SSW 22 30 12 16 1025.1 1025.0 0.0
19/11:30am 16.5 12.5 8.2 58 4.2 SW 19 32 10 17 1025.2 1025.1 0.0
19/11:00am 16.0 11.1 7.0 55 4.5 SW 22 28 12 15 1025.2 1025.1 0.0
19/10:30am 15.4 12.3 10.2 71 2.7 WSW 17 28 9 15 1025.3 1025.2 0.0
19/10:00am 14.8 11.4 11.4 80 1.8 SW 20 26 11 14 1025.2 1025.1 0.0
19/09:30am 13.4 11.8 12.8 96 0.3 W 13 19 7 10 1025.3 1025.2 0.0

Other Formats:

Comma delimited format used in spreadsheet applications
http://www.bom.gov.au/fwo/IDS60801/IDS60801.94651.axf

JavaScript Object Notation format (JSON) in row-major order
http://www.bom.gov.au/fwo/IDS60801/IDS60801.94651.json